sensor_id;sensor_type;location;lat;lon;timestamp;temperature;humidity
21216;DHT22;10765;50.954;5.322;2023-02-14T00:01:39;2.20;99.90
21216;DHT22;10765;50.954;5.322;2023-02-14T00:04:05;2.20;99.90
21216;DHT22;10765;50.954;5.322;2023-02-14T00:06:34;2.00;11.50
21216;DHT22;10765;50.954;5.322;2023-02-14T00:09:03;2.00;99.90
21216;DHT22;10765;50.954;5.322;2023-02-14T00:11:30;2.00;99.90
21216;DHT22;10765;50.954;5.322;2023-02-14T00:13:57;2.10;1.00
21216;DHT22;10765;50.954;5.322;2023-02-14T00:16:42;2.20;99.90
21216;DHT22;10765;50.954;5.322;2023-02-14T00:19:11;2.20;99.90
21216;DHT22;10765;50.954;5.322;2023-02-14T00:21:40;2.20;1.00
21216;DHT22;10765;50.954;5.322;2023-02-14T00:24:09;2.10;99.90
21216;DHT22;10765;50.954;5.322;2023-02-14T00:26:36;2.00;99.90
21216;DHT22;10765;50.954;5.322;2023-02-14T00:29:04;2.00;99.90
21216;DHT22;10765;50.954;5.322;2023-02-14T00:31:31;1.90;80.40
21216;DHT22;10765;50.954;5.322;2023-02-14T00:33:58;1.90;1.00
21216;DHT22;10765;50.954;5.322;2023-02-14T00:36:25;1.90;1.00
21216;DHT22;10765;50.954;5.322;2023-02-14T00:38:54;1.80;1.00
21216;DHT22;10765;50.954;5.322;2023-02-14T00:41:21;1.80;2.20
21216;DHT22;10765;50.954;5.322;2023-02-14T00:43:49;1.80;1.00
21216;DHT22;10765;50.954;5.322;2023-02-14T00:46:16;1.80;1.00
21216;DHT22;10765;50.954;5.322;2023-02-14T00:48:43;1.80;99.90
21216;DHT22;10765;50.954;5.322;2023-02-14T00:51:11;1.80;1.00
21216;DHT22;10765;50.954;5.322;2023-02-14T00:53:37;1.80;24.30
21216;DHT22;10765;50.954;5.322;2023-02-14T00:56:07;1.80;50.40
21216;DHT22;10765;50.954;5.322;2023-02-14T00:58:34;1.80;99.90
21216;DHT22;10765;50.954;5.322;2023-02-14T01:01:00;1.70;9.20
21216;DHT22;10765;50.954;5.322;2023-02-14T01:03:27;1.70;1.00
21216;DHT22;10765;50.954;5.322;2023-02-14T01:05:54;1.70;1.00
21216;DHT22;10765;50.954;5.322;2023-02-14T01:08:21;1.70;1.00
21216;DHT22;10765;50.954;5.322;2023-02-14T01:10:48;1.60;1.00
21216;DHT22;10765;50.954;5.322;2023-02-14T01:13:17;1.50;1.00
21216;DHT22;10765;50.954;5.322;2023-02-14T01:15:46;1.50;1.00
21216;DHT22;10765;50.954;5.322;2023-02-14T01:18:14;1.50;1.00
21216;DHT22;10765;50.954;5.322;2023-02-14T01:20:41;1.50;1.00
21216;DHT22;10765;50.954;5.322;2023-02-14T01:23:08;1.50;1.00
21216;DHT22;10765;50.954;5.322;2023-02-14T01:25:36;1.50;1.00
21216;DHT22;10765;50.954;5.322;2023-02-14T01:28:03;1.40;99.90
21216;DHT22;10765;50.954;5.322;2023-02-14T01:30:32;1.40;99.90
21216;DHT22;10765;50.954;5.322;2023-02-14T01:33:00;1.40;97.90
21216;DHT22;10765;50.954;5.322;2023-02-14T01:35:27;1.30;99.90
21216;DHT22;10765;50.954;5.322;2023-02-14T01:37:54;1.30;1.00
21216;DHT22;10765;50.954;5.322;2023-02-14T01:40:21;1.30;1.00
21216;DHT22;10765;50.954;5.322;2023-02-14T01:42:48;1.30;9.50
21216;DHT22;10765;50.954;5.322;2023-02-14T01:45:16;1.30;1.00
21216;DHT22;10765;50.954;5.322;2023-02-14T01:47:48;1.30;1.00
21216;DHT22;10765;50.954;5.322;2023-02-14T01:50:20;1.40;99.90
21216;DHT22;10765;50.954;5.322;2023-02-14T01:52:50;1.40;1.00
21216;DHT22;10765;50.954;5.322;2023-02-14T01:55:22;1.30;99.90
21216;DHT22;10765;50.954;5.322;2023-02-14T01:57:52;1.30;1.00
21216;DHT22;10765;50.954;5.322;2023-02-14T02:00:20;1.20;99.90
21216;DHT22;10765;50.954;5.322;2023-02-14T02:03:07;1.20;99.90
21216;DHT22;10765;50.954;5.322;2023-02-14T02:05:37;1.10;1.00
21216;DHT22;10765;50.954;5.322;2023-02-14T02:08:06;1.20;1.00
21216;DHT22;10765;50.954;5.322;2023-02-14T02:10:33;1.10;1.00
21216;DHT22;10765;50.954;5.322;2023-02-14T02:13:06;1.20;1.00
21216;DHT22;10765;50.954;5.322;2023-02-14T02:15:39;1.30;1.00
21216;DHT22;10765;50.954;5.322;2023-02-14T02:18:13;1.10;99.90
21216;DHT22;10765;50.954;5.322;2023-02-14T02:21:14;1.10;99.90
21216;DHT22;10765;50.954;5.322;2023-02-14T02:24:13;1.00;99.90
21216;DHT22;10765;50.954;5.322;2023-02-14T02:36:47;1.10;1.00
21216;DHT22;10765;50.954;5.322;2023-02-14T02:39:32;1.00;91.00
21216;DHT22;10765;50.954;5.322;2023-02-14T02:42:07;1.00;99.90
21216;DHT22;10765;50.954;5.322;2023-02-14T02:44:42;1.00;99.90
21216;DHT22;10765;50.954;5.322;2023-02-14T02:47:17;0.90;67.20
21216;DHT22;10765;50.954;5.322;2023-02-14T02:49:54;0.90;1.00
21216;DHT22;10765;50.954;5.322;2023-02-14T02:52:43;0.90;1.00
21216;DHT22;10765;50.954;5.322;2023-02-14T02:55:38;0.90;1.00
21216;DHT22;10765;50.954;5.322;2023-02-14T02:58:27;0.90;1.00
21216;DHT22;10765;50.954;5.322;2023-02-14T03:00:57;0.90;1.00
21216;DHT22;10765;50.954;5.322;2023-02-14T03:03:27;0.90;1.00
21216;DHT22;10765;50.954;5.322;2023-02-14T03:06:12;0.90;99.90
21216;DHT22;10765;50.954;5.322;2023-02-14T03:08:41;0.80;99.90
21216;DHT22;10765;50.954;5.322;2023-02-14T03:11:11;0.80;99.90
21216;DHT22;10765;50.954;5.322;2023-02-14T03:14:00;0.80;99.90
21216;DHT22;10765;50.954;5.322;2023-02-14T03:16:32;0.80;99.90
21216;DHT22;10765;50.954;5.322;2023-02-14T03:19:25;0.70;99.90
21216;DHT22;10765;50.954;5.322;2023-02-14T03:22:19;0.70;99.90
21216;DHT22;10765;50.954;5.322;2023-02-14T03:24:54;0.70;99.90
21216;DHT22;10765;50.954;5.322;2023-02-14T03:27:26;0.70;99.90
21216;DHT22;10765;50.954;5.322;2023-02-14T03:30:00;0.70;99.90
21216;DHT22;10765;50.954;5.322;2023-02-14T03:32:35;0.70;99.90
21216;DHT22;10765;50.954;5.322;2023-02-14T03:35:10;0.80;99.90
21216;DHT22;10765;50.954;5.322;2023-02-14T03:37:42;0.80;99.90
21216;DHT22;10765;50.954;5.322;2023-02-14T03:40:16;0.80;99.90
21216;DHT22;10765;50.954;5.322;2023-02-14T03:42:49;1.00;1.00
21216;DHT22;10765;50.954;5.322;2023-02-14T03:45:21;1.00;1.00
21216;DHT22;10765;50.954;5.322;2023-02-14T03:47:49;1.00;1.00
21216;DHT22;10765;50.954;5.322;2023-02-14T03:50:18;1.10;1.00
21216;DHT22;10765;50.954;5.322;2023-02-14T03:52:47;1.10;1.00
21216;DHT22;10765;50.954;5.322;2023-02-14T03:55:23;1.10;1.00
21216;DHT22;10765;50.954;5.322;2023-02-14T03:57:57;1.20;1.00
21216;DHT22;10765;50.954;5.322;2023-02-14T04:00:25;1.30;99.90
21216;DHT22;10765;50.954;5.322;2023-02-14T04:02:56;1.30;99.90
21216;DHT22;10765;50.954;5.322;2023-02-14T04:05:26;1.40;1.00
21216;DHT22;10765;50.954;5.322;2023-02-14T04:07:55;1.30;99.90
21216;DHT22;10765;50.954;5.322;2023-02-14T04:10:25;1.30;1.00
21216;DHT22;10765;50.954;5.322;2023-02-14T04:12:52;1.30;1.00
21216;DHT22;10765;50.954;5.322;2023-02-14T04:15:19;1.30;99.90
21216;DHT22;10765;50.954;5.322;2023-02-14T04:17:46;1.30;1.00
21216;DHT22;10765;50.954;5.322;2023-02-14T04:20:31;1.30;99.90
21216;DHT22;10765;50.954;5.322;2023-02-14T04:22:58;1.30;1.00
21216;DHT22;10765;50.954;5.322;2023-02-14T04:25:27;1.30;1.00
21216;DHT22;10765;50.954;5.322;2023-02-14T04:27:54;1.30;1.00
21216;DHT22;10765;50.954;5.322;2023-02-14T04:30:21;1.30;1.00
21216;DHT22;10765;50.954;5.322;2023-02-14T04:32:48;1.30;1.00
21216;DHT22;10765;50.954;5.322;2023-02-14T04:35:15;1.30;99.90
21216;DHT22;10765;50.954;5.322;2023-02-14T04:37:42;1.40;1.00
21216;DHT22;10765;50.954;5.322;2023-02-14T04:40:10;1.40;1.00
21216;DHT22;10765;50.954;5.322;2023-02-14T04:42:42;1.50;1.00
21216;DHT22;10765;50.954;5.322;2023-02-14T04:45:09;1.50;1.00
21216;DHT22;10765;50.954;5.322;2023-02-14T04:47:37;1.50;1.00
21216;DHT22;10765;50.954;5.322;2023-02-14T04:50:05;1.50;1.00
21216;DHT22;10765;50.954;5.322;2023-02-14T04:52:32;1.40;99.90
21216;DHT22;10765;50.954;5.322;2023-02-14T04:54:59;1.40;99.90
21216;DHT22;10765;50.954;5.322;2023-02-14T04:57:26;1.30;1.00
21216;DHT22;10765;50.954;5.322;2023-02-14T04:59:54;1.20;1.00
21216;DHT22;10765;50.954;5.322;2023-02-14T05:02:21;1.10;1.00
21216;DHT22;10765;50.954;5.322;2023-02-14T05:04:48;1.00;23.40
21216;DHT22;10765;50.954;5.322;2023-02-14T05:07:14;0.90;99.90
21216;DHT22;10765;50.954;5.322;2023-02-14T05:09:41;0.90;99.90
21216;DHT22;10765;50.954;5.322;2023-02-14T05:12:08;0.90;99.90
21216;DHT22;10765;50.954;5.322;2023-02-14T05:14:35;0.90;19.90
21216;DHT22;10765;50.954;5.322;2023-02-14T05:17:04;0.90;99.90
21216;DHT22;10765;50.954;5.322;2023-02-14T05:19:31;0.90;99.90
21216;DHT22;10765;50.954;5.322;2023-02-14T05:21:57;1.00;1.00
21216;DHT22;10765;50.954;5.322;2023-02-14T05:24:24;0.90;99.90
21216;DHT22;10765;50.954;5.322;2023-02-14T05:26:51;0.90;99.90
21216;DHT22;10765;50.954;5.322;2023-02-14T05:29:18;0.80;26.00
21216;DHT22;10765;50.954;5.322;2023-02-14T05:31:45;0.80;1.00
21216;DHT22;10765;50.954;5.322;2023-02-14T05:34:13;0.80;99.90
21216;DHT22;10765;50.954;5.322;2023-02-14T05:36:40;0.80;1.00
21216;DHT22;10765;50.954;5.322;2023-02-14T05:39:07;0.70;99.90
21216;DHT22;10765;50.954;5.322;2023-02-14T05:41:34;0.70;1.00
21216;DHT22;10765;50.954;5.322;2023-02-14T05:44:01;0.70;1.00
21216;DHT22;10765;50.954;5.322;2023-02-14T05:46:28;0.60;1.00
21216;DHT22;10765;50.954;5.322;2023-02-14T05:48:55;0.60;99.90
21216;DHT22;10765;50.954;5.322;2023-02-14T05:51:23;0.50;99.90
21216;DHT22;10765;50.954;5.322;2023-02-14T05:53:50;0.50;19.10
21216;DHT22;10765;50.954;5.322;2023-02-14T05:56:17;0.50;1.00
21216;DHT22;10765;50.954;5.322;2023-02-14T05:58:44;0.50;1.00
21216;DHT22;10765;50.954;5.322;2023-02-14T06:01:11;0.50;1.00
21216;DHT22;10765;50.954;5.322;2023-02-14T06:03:37;0.40;1.00
21216;DHT22;10765;50.954;5.322;2023-02-14T06:06:05;0.60;1.00
21216;DHT22;10765;50.954;5.322;2023-02-14T06:08:33;0.50;1.00
21216;DHT22;10765;50.954;5.322;2023-02-14T06:11:00;0.50;1.00
21216;DHT22;10765;50.954;5.322;2023-02-14T06:13:27;0.40;1.00
21216;DHT22;10765;50.954;5.322;2023-02-14T06:15:54;0.40;99.90
21216;DHT22;10765;50.954;5.322;2023-02-14T06:18:21;0.30;99.90
21216;DHT22;10765;50.954;5.322;2023-02-14T06:20:52;0.40;99.90
21216;DHT22;10765;50.954;5.322;2023-02-14T06:23:19;0.40;1.00
21216;DHT22;10765;50.954;5.322;2023-02-14T06:25:47;0.50;1.00
21216;DHT22;10765;50.954;5.322;2023-02-14T06:28:14;0.60;99.90
21216;DHT22;10765;50.954;5.322;2023-02-14T06:30:41;0.60;99.90
21216;DHT22;10765;50.954;5.322;2023-02-14T06:33:08;0.50;91.90
21216;DHT22;10765;50.954;5.322;2023-02-14T06:35:35;0.50;1.00
21216;DHT22;10765;50.954;5.322;2023-02-14T06:38:02;0.40;1.00
21216;DHT22;10765;50.954;5.322;2023-02-14T06:40:29;0.40;1.00
21216;DHT22;10765;50.954;5.322;2023-02-14T06:42:57;0.40;1.00
21216;DHT22;10765;50.954;5.322;2023-02-14T06:45:24;0.40;1.00
21216;DHT22;10765;50.954;5.322;2023-02-14T06:47:51;0.40;99.90
21216;DHT22;10765;50.954;5.322;2023-02-14T06:50:18;0.40;99.90
21216;DHT22;10765;50.954;5.322;2023-02-14T06:52:44;0.30;99.90
21216;DHT22;10765;50.954;5.322;2023-02-14T06:55:11;0.40;99.90
21216;DHT22;10765;50.954;5.322;2023-02-14T06:57:38;0.40;99.90
21216;DHT22;10765;50.954;5.322;2023-02-14T07:00:08;0.30;99.90
21216;DHT22;10765;50.954;5.322;2023-02-14T07:02:35;0.40;99.90
21216;DHT22;10765;50.954;5.322;2023-02-14T07:05:02;0.40;99.90
21216;DHT22;10765;50.954;5.322;2023-02-14T07:07:29;0.50;99.90
21216;DHT22;10765;50.954;5.322;2023-02-14T07:09:56;0.50;99.90
21216;DHT22;10765;50.954;5.322;2023-02-14T07:12:23;0.60;99.90
21216;DHT22;10765;50.954;5.322;2023-02-14T07:14:50;0.70;95.40
21216;DHT22;10765;50.954;5.322;2023-02-14T07:17:18;0.80;42.20
21216;DHT22;10765;50.954;5.322;2023-02-14T07:19:45;1.10;1.00
21216;DHT22;10765;50.954;5.322;2023-02-14T07:22:12;1.30;99.90
21216;DHT22;10765;50.954;5.322;2023-02-14T07:24:39;1.70;49.00
21216;DHT22;10765;50.954;5.322;2023-02-14T07:27:06;2.00;20.50
21216;DHT22;10765;50.954;5.322;2023-02-14T07:29:33;2.20;1.00
21216;DHT22;10765;50.954;5.322;2023-02-14T07:32:00;2.50;99.90
21216;DHT22;10765;50.954;5.322;2023-02-14T07:34:28;3.00;1.00
21216;DHT22;10765;50.954;5.322;2023-02-14T07:36:55;3.50;99.90
21216;DHT22;10765;50.954;5.322;2023-02-14T07:39:22;4.10;99.90
21216;DHT22;10765;50.954;5.322;2023-02-14T07:41:49;4.60;99.90
21216;DHT22;10765;50.954;5.322;2023-02-14T07:44:16;5.30;99.90
21216;DHT22;10765;50.954;5.322;2023-02-14T07:46:43;5.90;1.00
21216;DHT22;10765;50.954;5.322;2023-02-14T07:49:10;6.20;1.00
21216;DHT22;10765;50.954;5.322;2023-02-14T07:51:38;6.60;99.90
21216;DHT22;10765;50.954;5.322;2023-02-14T07:54:05;6.90;99.90
21216;DHT22;10765;50.954;5.322;2023-02-14T07:56:32;7.20;99.90
21216;DHT22;10765;50.954;5.322;2023-02-14T07:58:59;7.60;99.90
21216;DHT22;10765;50.954;5.322;2023-02-14T08:01:26;7.90;99.90
21216;DHT22;10765;50.954;5.322;2023-02-14T08:03:53;8.30;95.60
21216;DHT22;10765;50.954;5.322;2023-02-14T08:06:20;8.80;45.50
21216;DHT22;10765;50.954;5.322;2023-02-14T08:08:49;9.10;1.10
21216;DHT22;10765;50.954;5.322;2023-02-14T08:11:16;9.50;1.00
21216;DHT22;10765;50.954;5.322;2023-02-14T08:14:03;9.80;1.00
21216;DHT22;10765;50.954;5.322;2023-02-14T08:16:30;10.40;1.00
21216;DHT22;10765;50.954;5.322;2023-02-14T08:18:59;10.90;1.00
21216;DHT22;10765;50.954;5.322;2023-02-14T08:21:26;11.40;1.00
21216;DHT22;10765;50.954;5.322;2023-02-14T08:23:55;12.20;1.00
21216;DHT22;10765;50.954;5.322;2023-02-14T08:26:21;12.70;1.00
21216;DHT22;10765;50.954;5.322;2023-02-14T08:28:48;13.10;1.00
21216;DHT22;10765;50.954;5.322;2023-02-14T08:31:22;13.40;1.00
21216;DHT22;10765;50.954;5.322;2023-02-14T08:33:49;13.90;1.00
21216;DHT22;10765;50.954;5.322;2023-02-14T08:36:16;14.60;1.00
21216;DHT22;10765;50.954;5.322;2023-02-14T08:38:43;15.30;1.00
21216;DHT22;10765;50.954;5.322;2023-02-14T08:41:13;15.40;1.00
21216;DHT22;10765;50.954;5.322;2023-02-14T08:43:40;16.00;1.00
21216;DHT22;10765;50.954;5.322;2023-02-14T08:46:07;16.80;1.00
21216;DHT22;10765;50.954;5.322;2023-02-14T08:48:35;17.40;1.00
21216;DHT22;10765;50.954;5.322;2023-02-14T08:51:04;17.70;1.00
21216;DHT22;10765;50.954;5.322;2023-02-14T08:53:31;17.70;1.00
21216;DHT22;10765;50.954;5.322;2023-02-14T08:56:01;17.30;1.00
21216;DHT22;10765;50.954;5.322;2023-02-14T08:58:31;17.80;1.00
21216;DHT22;10765;50.954;5.322;2023-02-14T09:01:00;18.50;1.00
21216;DHT22;10765;50.954;5.322;2023-02-14T09:03:27;18.80;1.00
21216;DHT22;10765;50.954;5.322;2023-02-14T09:06:01;19.70;1.00
21216;DHT22;10765;50.954;5.322;2023-02-14T09:08:28;20.80;1.00
21216;DHT22;10765;50.954;5.322;2023-02-14T09:10:56;20.90;1.00
21216;DHT22;10765;50.954;5.322;2023-02-14T09:13:23;20.90;1.00
21216;DHT22;10765;50.954;5.322;2023-02-14T09:15:51;21.40;1.00
21216;DHT22;10765;50.954;5.322;2023-02-14T09:18:18;21.10;1.00
21216;DHT22;10765;50.954;5.322;2023-02-14T09:20:45;21.30;1.00
21216;DHT22;10765;50.954;5.322;2023-02-14T09:23:12;21.90;1.00
21216;DHT22;10765;50.954;5.322;2023-02-14T09:25:38;21.90;1.00
21216;DHT22;10765;50.954;5.322;2023-02-14T09:28:05;22.20;1.00
21216;DHT22;10765;50.954;5.322;2023-02-14T09:30:32;22.50;1.00
21216;DHT22;10765;50.954;5.322;2023-02-14T09:33:01;22.70;1.00
21216;DHT22;10765;50.954;5.322;2023-02-14T09:35:30;21.90;1.00
21216;DHT22;10765;50.954;5.322;2023-02-14T09:38:15;22.60;1.00
21216;DHT22;10765;50.954;5.322;2023-02-14T09:40:41;22.70;1.00
21216;DHT22;10765;50.954;5.322;2023-02-14T09:43:11;23.10;1.00
21216;DHT22;10765;50.954;5.322;2023-02-14T09:45:46;23.70;1.00
21216;DHT22;10765;50.954;5.322;2023-02-14T09:48:23;24.00;1.00
21216;DHT22;10765;50.954;5.322;2023-02-14T09:50:54;23.70;1.00
21216;DHT22;10765;50.954;5.322;2023-02-14T09:53:25;24.40;1.00
21216;DHT22;10765;50.954;5.322;2023-02-14T09:56:00;24.30;1.00
21216;DHT22;10765;50.954;5.322;2023-02-14T09:58:33;24.40;1.00
21216;DHT22;10765;50.954;5.322;2023-02-14T10:01:08;24.30;1.00
21216;DHT22;10765;50.954;5.322;2023-02-14T10:03:53;24.00;1.00
21216;DHT22;10765;50.954;5.322;2023-02-14T10:06:47;24.30;1.00
21216;DHT22;10765;50.954;5.322;2023-02-14T10:12:19;24.70;1.00
21216;DHT22;10765;50.954;5.322;2023-02-14T10:14:47;26.40;1.00
21216;DHT22;10765;50.954;5.322;2023-02-14T10:17:18;26.70;1.00
21216;DHT22;10765;50.954;5.322;2023-02-14T10:19:55;26.10;1.00
21216;DHT22;10765;50.954;5.322;2023-02-14T10:22:28;26.00;1.00
21216;DHT22;10765;50.954;5.322;2023-02-14T10:25:01;25.40;1.00
21216;DHT22;10765;50.954;5.322;2023-02-14T10:27:31;25.90;1.00
21216;DHT22;10765;50.954;5.322;2023-02-14T10:29:59;26.60;1.00
21216;DHT22;10765;50.954;5.322;2023-02-14T10:32:33;26.90;1.00
21216;DHT22;10765;50.954;5.322;2023-02-14T10:35:13;27.60;1.00
21216;DHT22;10765;50.954;5.322;2023-02-14T10:37:53;27.40;1.00
21216;DHT22;10765;50.954;5.322;2023-02-14T10:40:35;27.80;1.00
21216;DHT22;10765;50.954;5.322;2023-02-14T10:43:15;27.80;1.00
21216;DHT22;10765;50.954;5.322;2023-02-14T10:45:48;27.40;1.00
21216;DHT22;10765;50.954;5.322;2023-02-14T10:48:24;27.90;1.00
21216;DHT22;10765;50.954;5.322;2023-02-14T10:51:00;28.80;1.00
21216;DHT22;10765;50.954;5.322;2023-02-14T10:53:34;29.30;1.00
21216;DHT22;10765;50.954;5.322;2023-02-14T10:56:10;29.40;1.00
21216;DHT22;10765;50.954;5.322;2023-02-14T10:58:39;29.10;1.00
21216;DHT22;10765;50.954;5.322;2023-02-14T11:01:11;28.50;1.00
21216;DHT22;10765;50.954;5.322;2023-02-14T11:03:40;27.70;1.00
21216;DHT22;10765;50.954;5.322;2023-02-14T11:06:09;27.90;1.00
21216;DHT22;10765;50.954;5.322;2023-02-14T11:08:38;28.00;1.00
21216;DHT22;10765;50.954;5.322;2023-02-14T11:11:13;28.20;1.00
21216;DHT22;10765;50.954;5.322;2023-02-14T11:13:43;28.00;1.00
21216;DHT22;10765;50.954;5.322;2023-02-14T11:16:11;27.40;1.00
21216;DHT22;10765;50.954;5.322;2023-02-14T11:18:39;28.30;1.00
21216;DHT22;10765;50.954;5.322;2023-02-14T11:21:10;29.20;1.00
21216;DHT22;10765;50.954;5.322;2023-02-14T11:23:39;30.00;1.00
21216;DHT22;10765;50.954;5.322;2023-02-14T11:26:15;27.50;1.00
21216;DHT22;10765;50.954;5.322;2023-02-14T11:28:51;25.70;1.00
21216;DHT22;10765;50.954;5.322;2023-02-14T11:31:27;23.70;1.00
21216;DHT22;10765;50.954;5.322;2023-02-14T11:33:55;22.60;1.00
21216;DHT22;10765;50.954;5.322;2023-02-14T11:36:24;21.70;1.00
21216;DHT22;10765;50.954;5.322;2023-02-14T11:39:00;21.10;1.00
21216;DHT22;10765;50.954;5.322;2023-02-14T11:41:45;20.50;1.00
21216;DHT22;10765;50.954;5.322;2023-02-14T11:44:16;21.80;1.00
21216;DHT22;10765;50.954;5.322;2023-02-14T11:46:47;24.30;1.00
21216;DHT22;10765;50.954;5.322;2023-02-14T11:49:28;25.00;1.00
21216;DHT22;10765;50.954;5.322;2023-02-14T11:51:58;24.20;1.00
21216;DHT22;10765;50.954;5.322;2023-02-14T11:54:29;23.80;1.00
21216;DHT22;10765;50.954;5.322;2023-02-14T11:57:02;24.10;1.00
21216;DHT22;10765;50.954;5.322;2023-02-14T11:59:33;24.50;1.00
21216;DHT22;10765;50.954;5.322;2023-02-14T12:02:16;24.50;1.00
21216;DHT22;10765;50.954;5.322;2023-02-14T12:04:46;25.10;1.00
21216;DHT22;10765;50.954;5.322;2023-02-14T12:07:21;24.60;1.00
21216;DHT22;10765;50.954;5.322;2023-02-14T12:10:14;24.70;1.00
21216;DHT22;10765;50.954;5.322;2023-02-14T12:12:51;22.60;1.00
21216;DHT22;10765;50.954;5.322;2023-02-14T12:15:28;21.50;1.00
21216;DHT22;10765;50.954;5.322;2023-02-14T12:20:48;19.70;1.00
21216;DHT22;10765;50.954;5.322;2023-02-14T12:23:23;19.50;1.00
21216;DHT22;10765;50.954;5.322;2023-02-14T12:25:56;19.70;1.00
21216;DHT22;10765;50.954;5.322;2023-02-14T12:28:28;19.60;1.00
21216;DHT22;10765;50.954;5.322;2023-02-14T12:30:57;19.60;1.00
21216;DHT22;10765;50.954;5.322;2023-02-14T12:33:24;19.30;1.00
21216;DHT22;10765;50.954;5.322;2023-02-14T12:35:56;19.10;1.00
21216;DHT22;10765;50.954;5.322;2023-02-14T12:38:39;19.10;1.00
21216;DHT22;10765;50.954;5.322;2023-02-14T12:41:23;19.40;1.00
21216;DHT22;10765;50.954;5.322;2023-02-14T12:43:53;19.50;1.00
21216;DHT22;10765;50.954;5.322;2023-02-14T12:46:37;19.10;1.00
21216;DHT22;10765;50.954;5.322;2023-02-14T12:49:26;19.30;1.00
21216;DHT22;10765;50.954;5.322;2023-02-14T12:52:02;18.60;1.00
21216;DHT22;10765;50.954;5.322;2023-02-14T12:54:40;18.60;1.00
21216;DHT22;10765;50.954;5.322;2023-02-14T12:57:28;19.50;1.00
21216;DHT22;10765;50.954;5.322;2023-02-14T13:00:05;19.10;1.00
21216;DHT22;10765;50.954;5.322;2023-02-14T13:03:02;19.20;1.00
21216;DHT22;10765;50.954;5.322;2023-02-14T13:05:45;19.50;1.00
21216;DHT22;10765;50.954;5.322;2023-02-14T13:08:23;19.50;1.00
21216;DHT22;10765;50.954;5.322;2023-02-14T13:11:03;20.00;1.00
21216;DHT22;10765;50.954;5.322;2023-02-14T13:13:39;20.30;1.00
21216;DHT22;10765;50.954;5.322;2023-02-14T13:16:15;20.70;1.00
21216;DHT22;10765;50.954;5.322;2023-02-14T13:18:50;20.20;1.00
21216;DHT22;10765;50.954;5.322;2023-02-14T13:21:22;19.90;1.00
21216;DHT22;10765;50.954;5.322;2023-02-14T13:23:53;19.30;1.00
21216;DHT22;10765;50.954;5.322;2023-02-14T13:26:26;19.10;1.00
21216;DHT22;10765;50.954;5.322;2023-02-14T13:28:56;19.50;1.00
21216;DHT22;10765;50.954;5.322;2023-02-14T13:31:27;20.00;1.00
21216;DHT22;10765;50.954;5.322;2023-02-14T13:33:57;20.00;1.00
21216;DHT22;10765;50.954;5.322;2023-02-14T13:36:27;20.00;1.00
21216;DHT22;10765;50.954;5.322;2023-02-14T13:38:55;21.10;1.00
21216;DHT22;10765;50.954;5.322;2023-02-14T13:41:25;22.70;1.00
21216;DHT22;10765;50.954;5.322;2023-02-14T13:43:55;24.40;1.00
21216;DHT22;10765;50.954;5.322;2023-02-14T13:46:45;26.10;1.00
21216;DHT22;10765;50.954;5.322;2023-02-14T13:49:28;27.70;1.00
21216;DHT22;10765;50.954;5.322;2023-02-14T13:51:57;27.60;1.00
21216;DHT22;10765;50.954;5.322;2023-02-14T13:54:31;29.20;1.00
21216;DHT22;10765;50.954;5.322;2023-02-14T13:57:02;31.00;1.00
21216;DHT22;10765;50.954;5.322;2023-02-14T14:00:34;31.90;1.00
21216;DHT22;10765;50.954;5.322;2023-02-14T14:03:04;32.20;1.00
21216;DHT22;10765;50.954;5.322;2023-02-14T14:05:58;31.20;1.00
21216;DHT22;10765;50.954;5.322;2023-02-14T14:08:50;30.80;1.00
21216;DHT22;10765;50.954;5.322;2023-02-14T14:11:48;31.50;1.00
21216;DHT22;10765;50.954;5.322;2023-02-14T14:14:32;31.40;1.00
21216;DHT22;10765;50.954;5.322;2023-02-14T14:17:22;30.80;1.00
21216;DHT22;10765;50.954;5.322;2023-02-14T14:19:50;30.10;1.00
21216;DHT22;10765;50.954;5.322;2023-02-14T14:22:17;28.70;1.00
21216;DHT22;10765;50.954;5.322;2023-02-14T14:24:56;27.70;1.00
21216;DHT22;10765;50.954;5.322;2023-02-14T14:27:28;27.90;1.00
21216;DHT22;10765;50.954;5.322;2023-02-14T14:29:58;28.40;1.00
21216;DHT22;10765;50.954;5.322;2023-02-14T14:32:29;28.00;1.00
21216;DHT22;10765;50.954;5.322;2023-02-14T14:34:59;28.30;1.00
21216;DHT22;10765;50.954;5.322;2023-02-14T14:37:29;27.30;1.00
21216;DHT22;10765;50.954;5.322;2023-02-14T14:39:57;25.90;1.00
21216;DHT22;10765;50.954;5.322;2023-02-14T14:42:26;23.70;1.00
21216;DHT22;10765;50.954;5.322;2023-02-14T14:44:57;23.20;1.00
21216;DHT22;10765;50.954;5.322;2023-02-14T14:47:30;22.70;1.00
21216;DHT22;10765;50.954;5.322;2023-02-14T14:50:05;23.80;1.00
21216;DHT22;10765;50.954;5.322;2023-02-14T14:52:37;25.10;1.00
21216;DHT22;10765;50.954;5.322;2023-02-14T14:55:06;25.30;1.00
21216;DHT22;10765;50.954;5.322;2023-02-14T14:57:34;24.80;1.00
21216;DHT22;10765;50.954;5.322;2023-02-14T15:00:17;25.20;1.00
21216;DHT22;10765;50.954;5.322;2023-02-14T15:02:59;23.80;1.00
21216;DHT22;10765;50.954;5.322;2023-02-14T15:05:29;22.70;1.00
21216;DHT22;10765;50.954;5.322;2023-02-14T15:07:57;20.80;1.00
21216;DHT22;10765;50.954;5.322;2023-02-14T15:10:27;18.70;1.00
21216;DHT22;10765;50.954;5.322;2023-02-14T15:12:56;17.30;1.00
21216;DHT22;10765;50.954;5.322;2023-02-14T15:15:46;16.40;1.00
21216;DHT22;10765;50.954;5.322;2023-02-14T15:18:14;16.00;1.00
21216;DHT22;10765;50.954;5.322;2023-02-14T15:20:42;15.50;1.00
21216;DHT22;10765;50.954;5.322;2023-02-14T15:23:16;15.30;1.00
21216;DHT22;10765;50.954;5.322;2023-02-14T15:25:46;15.10;1.00
21216;DHT22;10765;50.954;5.322;2023-02-14T15:28:24;15.00;1.00
21216;DHT22;10765;50.954;5.322;2023-02-14T15:30:56;14.80;1.00
21216;DHT22;10765;50.954;5.322;2023-02-14T15:33:24;14.60;1.00
21216;DHT22;10765;50.954;5.322;2023-02-14T15:35:51;14.40;1.00
21216;DHT22;10765;50.954;5.322;2023-02-14T15:38:19;14.30;1.00
21216;DHT22;10765;50.954;5.322;2023-02-14T15:40:49;14.20;1.00
21216;DHT22;10765;50.954;5.322;2023-02-14T15:43:25;14.10;1.00
21216;DHT22;10765;50.954;5.322;2023-02-14T15:45:58;14.00;1.00
21216;DHT22;10765;50.954;5.322;2023-02-14T15:48:28;13.80;1.00
21216;DHT22;10765;50.954;5.322;2023-02-14T15:50:56;13.70;1.00
21216;DHT22;10765;50.954;5.322;2023-02-14T15:53:34;13.60;1.00
21216;DHT22;10765;50.954;5.322;2023-02-14T15:56:04;13.50;1.00
21216;DHT22;10765;50.954;5.322;2023-02-14T15:58:33;13.50;1.00
21216;DHT22;10765;50.954;5.322;2023-02-14T16:01:02;13.40;1.00
21216;DHT22;10765;50.954;5.322;2023-02-14T16:03:31;13.40;1.00
21216;DHT22;10765;50.954;5.322;2023-02-14T16:06:00;13.30;1.00
21216;DHT22;10765;50.954;5.322;2023-02-14T16:08:30;13.20;1.00
21216;DHT22;10765;50.954;5.322;2023-02-14T16:10:59;13.00;1.00
21216;DHT22;10765;50.954;5.322;2023-02-14T16:13:32;12.90;4.50
21216;DHT22;10765;50.954;5.322;2023-02-14T16:16:02;12.70;6.30
21216;DHT22;10765;50.954;5.322;2023-02-14T16:18:35;12.60;10.30
21216;DHT22;10765;50.954;5.322;2023-02-14T16:21:11;12.50;12.20
21216;DHT22;10765;50.954;5.322;2023-02-14T16:23:39;12.50;13.30
21216;DHT22;10765;50.954;5.322;2023-02-14T16:26:06;12.40;16.60
21216;DHT22;10765;50.954;5.322;2023-02-14T16:28:34;12.30;18.50
21216;DHT22;10765;50.954;5.322;2023-02-14T16:31:05;12.20;20.90
21216;DHT22;10765;50.954;5.322;2023-02-14T16:33:37;12.10;23.60